createdAt,value
2022-11-15T00:01:15.126Z,13.53
2022-11-15T00:03:42.897Z,13.83
2022-11-15T00:06:11.143Z,13.20
2022-11-15T00:08:42.103Z,12.50
2022-11-15T00:11:13.660Z,15.17
2022-11-15T00:13:41.965Z,13.00
2022-11-15T00:16:12.079Z,10.00
2022-11-15T00:18:40.237Z,14.00
2022-11-15T00:21:11.744Z,11.17
2022-11-15T00:23:40.131Z,9.60
2022-11-15T00:26:08.359Z,13.83
2022-11-15T00:28:37.467Z,9.07
2022-11-15T00:31:07.394Z,10.20
2022-11-15T00:33:35.723Z,10.03
2022-11-15T00:36:05.003Z,10.67
2022-11-15T00:38:34.416Z,9.40
2022-11-15T00:41:07.738Z,7.90
2022-11-15T00:43:40.662Z,7.80
2022-11-15T00:46:09.878Z,9.67
2022-11-15T00:48:37.924Z,7.17
2022-11-15T00:51:05.767Z,10.07
2022-11-15T00:53:36.628Z,9.37
2022-11-15T00:56:04.633Z,7.80
2022-11-15T00:58:33.288Z,8.00
2022-11-15T01:01:10.094Z,9.13
2022-11-15T01:03:38.525Z,10.40
2022-11-15T01:06:07.108Z,7.60
2022-11-15T01:08:35.342Z,6.50
2022-11-15T01:11:04.118Z,6.90
2022-11-15T01:13:33.733Z,6.57
2022-11-15T01:16:07.023Z,6.03
2022-11-15T01:18:36.449Z,6.77
2022-11-15T01:21:07.881Z,6.07
2022-11-15T01:23:35.862Z,7.77
2022-11-15T01:26:04.873Z,7.93
2022-11-15T01:28:33.516Z,6.80
2022-11-15T01:31:01.777Z,8.63
2022-11-15T01:33:31.141Z,6.67
2022-11-15T01:36:00.452Z,11.20
2022-11-15T01:38:28.253Z,8.60
2022-11-15T01:40:56.012Z,6.03
2022-11-15T01:43:26.460Z,5.40
2022-11-15T01:45:58.695Z,6.33
2022-11-15T01:48:31.366Z,6.63
2022-11-15T01:51:01.736Z,7.27
2022-11-15T01:53:30.891Z,5.87
2022-11-15T01:55:59.715Z,7.80
2022-11-15T01:58:27.502Z,12.73
2022-11-15T02:00:55.388Z,8.77
2022-11-15T02:03:28.097Z,7.17
2022-11-15T02:05:56.140Z,6.40
2022-11-15T02:08:25.316Z,7.30
2022-11-15T02:10:53.171Z,6.27
2022-11-15T02:13:20.992Z,9.13
2022-11-15T02:16:02.626Z,5.90
2022-11-15T02:18:36.681Z,5.53
2022-11-15T02:21:16.853Z,13.03
2022-11-15T02:24:37.595Z,9.20
2022-11-15T02:27:54.156Z,6.60
2022-11-15T02:30:26.217Z,9.13
2022-11-15T02:32:59.931Z,6.27
2022-11-15T02:35:36.669Z,6.80
2022-11-15T02:38:10.932Z,7.30
2022-11-15T02:40:46.708Z,6.60
2022-11-15T02:43:39.587Z,5.90
2022-11-15T02:46:15.280Z,5.43
2022-11-15T02:48:45.069Z,7.23
2022-11-15T02:51:17.653Z,6.00
2022-11-15T02:53:45.445Z,5.47
2022-11-15T02:56:14.216Z,5.53
2022-11-15T02:59:08.989Z,7.00
2022-11-15T03:01:50.739Z,7.87
2022-11-15T03:04:31.829Z,8.00
2022-11-15T03:07:04.582Z,6.87
2022-11-15T03:09:37.303Z,7.23
2022-11-15T03:12:13.327Z,10.90
2022-11-15T03:14:49.261Z,6.37
2022-11-15T03:17:25.326Z,7.33
2022-11-15T03:19:57.098Z,7.30
2022-11-15T03:22:28.387Z,8.23
2022-11-15T03:25:00.347Z,5.23
2022-11-15T03:27:34.679Z,7.83
2022-11-15T03:30:05.935Z,4.73
2022-11-15T03:32:39.634Z,7.10
2022-11-15T03:35:11.052Z,6.00
2022-11-15T03:37:45.817Z,4.73
2022-11-15T03:40:14.673Z,6.87
2022-11-15T03:42:50.208Z,6.40
2022-11-15T03:45:24.216Z,6.87
2022-11-15T03:47:57.402Z,6.90
2022-11-15T03:50:26.984Z,4.77
2022-11-15T03:52:57.677Z,6.00
2022-11-15T03:55:25.674Z,6.17
2022-11-15T03:57:56.423Z,9.60
2022-11-15T04:00:24.534Z,6.33
2022-11-15T04:02:53.737Z,6.50
2022-11-15T04:05:21.674Z,5.37
2022-11-15T04:07:49.517Z,5.80
2022-11-15T04:10:18.003Z,6.43
2022-11-15T04:12:48.541Z,6.07
2022-11-15T04:15:18.915Z,6.53
2022-11-15T04:17:48.143Z,6.60
2022-11-15T04:20:36.796Z,13.90
2022-11-15T04:23:25.431Z,5.80
2022-11-15T04:25:55.875Z,6.30
2022-11-15T04:28:24.214Z,7.67
2022-11-15T04:30:52.044Z,9.23
2022-11-15T04:33:20.205Z,6.03
2022-11-15T04:36:09.331Z,4.37
2022-11-15T04:38:36.734Z,7.70
2022-11-15T04:41:05.041Z,5.70
2022-11-15T04:43:33.249Z,4.80
2022-11-15T04:46:01.352Z,6.13
2022-11-15T04:48:29.185Z,8.00
2022-11-15T04:50:58.374Z,6.40
2022-11-15T04:53:26.208Z,8.90
2022-11-15T04:55:54.003Z,6.10
2022-11-15T04:58:21.806Z,5.67
2022-11-15T05:00:49.875Z,7.33
2022-11-15T05:03:35.470Z,5.07
2022-11-15T05:06:04.939Z,4.67
2022-11-15T05:08:32.704Z,6.37
2022-11-15T05:11:00.570Z,5.30
2022-11-15T05:13:28.605Z,5.80
2022-11-15T05:15:56.504Z,4.80
2022-11-15T05:18:24.302Z,5.10
2022-11-15T05:20:52.107Z,7.47
2022-11-15T05:23:21.325Z,7.83
2022-11-15T05:25:49.120Z,5.80
2022-11-15T05:28:17.004Z,6.80
2022-11-15T05:30:44.873Z,6.20
2022-11-15T05:33:12.767Z,6.87
2022-11-15T05:35:47.382Z,6.17
2022-11-15T05:38:15.289Z,6.50
2022-11-15T05:40:44.499Z,5.67
2022-11-15T05:43:12.721Z,4.60
2022-11-15T05:45:40.575Z,7.50
2022-11-15T05:48:10.930Z,9.30
2022-11-15T05:50:40.844Z,6.83
2022-11-15T05:53:09.485Z,8.80
2022-11-15T05:55:37.353Z,5.07
2022-11-15T05:58:06.512Z,6.13
2022-11-15T06:00:34.465Z,9.50
2022-11-15T06:03:02.266Z,5.30
2022-11-15T06:05:30.097Z,5.93
2022-11-15T06:07:59.751Z,5.30
2022-11-15T06:10:27.917Z,8.03
2022-11-15T06:12:59.622Z,6.80
2022-11-15T06:15:29.230Z,4.70
2022-11-15T06:17:59.305Z,4.50
2022-11-15T06:20:27.259Z,8.10
2022-11-15T06:22:59.054Z,5.53
2022-11-15T06:25:27.655Z,7.20
2022-11-15T06:27:56.955Z,6.28
2022-11-15T06:30:26.475Z,7.00
2022-11-15T06:33:01.551Z,9.70
2022-11-15T06:35:29.444Z,6.33
2022-11-15T06:37:57.771Z,9.30
2022-11-15T06:40:25.545Z,5.50
2022-11-15T06:42:58.775Z,5.43
2022-11-15T06:45:26.721Z,4.60
2022-11-15T06:47:55.824Z,5.97
2022-11-15T06:50:23.728Z,6.30
2022-11-15T06:52:51.603Z,6.97
2022-11-15T06:55:19.685Z,6.50
2022-11-15T06:57:52.047Z,6.30
2022-11-15T07:00:22.114Z,8.30
2022-11-15T07:02:49.961Z,15.53
2022-11-15T07:05:19.141Z,6.67
2022-11-15T07:07:53.459Z,6.83
2022-11-15T07:10:21.717Z,13.40
2022-11-15T07:12:50.275Z,6.47
2022-11-15T07:15:18.664Z,14.10
2022-11-15T07:17:46.641Z,6.73
2022-11-15T07:20:15.175Z,8.13
2022-11-15T07:22:46.061Z,8.10
2022-11-15T07:25:14.163Z,6.23
2022-11-15T07:27:51.094Z,7.37
2022-11-15T07:30:19.412Z,8.40
2022-11-15T07:32:47.494Z,7.93
2022-11-15T07:35:15.503Z,7.90
2022-11-15T07:37:44.719Z,11.53
2022-11-15T07:40:13.550Z,6.70
2022-11-15T07:42:57.070Z,8.03
2022-11-15T07:45:27.644Z,8.50
2022-11-15T07:47:56.882Z,9.27
2022-11-15T07:50:25.673Z,8.33
2022-11-15T07:52:58.140Z,7.40
2022-11-15T07:55:26.718Z,8.50
2022-11-15T07:57:54.804Z,7.90
2022-11-15T08:00:22.627Z,6.90
2022-11-15T08:02:50.828Z,23.60
2022-11-15T08:05:18.784Z,12.03
2022-11-15T08:07:46.558Z,10.20
2022-11-15T08:10:17.658Z,6.60
2022-11-15T08:12:45.616Z,7.30
2022-11-15T08:15:13.498Z,8.50
2022-11-15T08:17:41.344Z,8.40
2022-11-15T08:20:10.389Z,7.83
2022-11-15T08:22:49.405Z,7.89
2022-11-15T08:25:19.021Z,8.10
2022-11-15T08:27:46.964Z,12.70
2022-11-15T08:30:16.898Z,10.70
2022-11-15T08:32:44.832Z,12.90
2022-11-15T08:35:12.608Z,13.10
2022-11-15T08:37:41.133Z,8.60
2022-11-15T08:40:10.456Z,12.02
2022-11-15T08:42:39.635Z,9.27
2022-11-15T08:45:08.756Z,13.60
2022-11-15T08:47:36.680Z,12.73
2022-11-15T08:50:04.940Z,10.00
2022-11-15T08:52:32.786Z,10.70
2022-11-15T08:55:00.852Z,10.63
2022-11-15T08:57:31.554Z,6.93
2022-11-15T09:00:00.822Z,6.60
2022-11-15T09:02:28.705Z,11.33
2022-11-15T09:04:56.518Z,6.53
2022-11-15T09:07:25.868Z,5.73
2022-11-15T09:09:53.924Z,7.90
2022-11-15T09:12:21.729Z,7.03
2022-11-15T09:14:49.539Z,5.63
2022-11-15T09:17:23.327Z,7.40
2022-11-15T09:19:52.672Z,10.50
2022-11-15T09:22:20.582Z,9.30
2022-11-15T09:24:48.421Z,10.43
2022-11-15T09:27:16.149Z,7.00
2022-11-15T09:29:43.993Z,7.13
2022-11-15T09:32:12.032Z,9.03
2022-11-15T09:34:41.166Z,8.83
2022-11-15T09:37:08.960Z,9.83
2022-11-15T09:39:36.819Z,8.43
2022-11-15T09:42:26.732Z,6.87
2022-11-15T09:45:06.367Z,6.90
2022-11-15T09:47:46.788Z,9.40
2022-11-15T09:50:20.542Z,5.90
2022-11-15T09:52:48.339Z,6.20
2022-11-15T09:55:22.204Z,8.20
2022-11-15T09:57:57.550Z,6.83
2022-11-15T10:00:50.960Z,5.53
2022-11-15T10:03:23.960Z,8.90
2022-11-15T10:05:56.190Z,4.73
2022-11-15T10:08:45.980Z,8.90
2022-11-15T10:14:13.500Z,5.67
2022-11-15T10:17:15.328Z,4.70
2022-11-15T10:19:54.609Z,5.97
2022-11-15T10:22:32.158Z,4.70
2022-11-15T10:25:14.307Z,4.90
2022-11-15T10:27:43.058Z,9.03
2022-11-15T10:30:14.516Z,5.37
2022-11-15T10:32:44.473Z,4.73
2022-11-15T10:35:27.952Z,3.93
2022-11-15T10:38:07.531Z,5.53
2022-11-15T10:40:35.825Z,12.13
2022-11-15T10:43:15.223Z,3.63
2022-11-15T10:45:43.300Z,5.50
2022-11-15T10:48:29.114Z,4.20
2022-11-15T10:50:57.867Z,5.20
2022-11-15T10:53:35.176Z,4.60
2022-11-15T10:56:09.078Z,6.13
2022-11-15T10:58:40.512Z,4.80
2022-11-15T11:01:14.001Z,3.87
2022-11-15T11:03:44.024Z,3.63
2022-11-15T11:06:14.562Z,4.80
2022-11-15T11:08:56.544Z,5.23
2022-11-15T11:11:24.534Z,4.53
2022-11-15T11:13:52.482Z,3.60
2022-11-15T11:16:43.224Z,7.57
2022-11-15T11:19:22.921Z,4.70
2022-11-15T11:22:00.015Z,4.40
2022-11-15T11:24:38.014Z,8.10
2022-11-15T11:27:16.015Z,4.07
2022-11-15T11:30:03.949Z,3.97
2022-11-15T11:32:43.023Z,4.90
2022-11-15T11:35:15.253Z,3.73
2022-11-15T11:38:02.173Z,3.23
2022-11-15T11:40:36.922Z,3.37
2022-11-15T11:43:14.384Z,4.03
2022-11-15T11:46:12.068Z,3.40
2022-11-15T11:48:43.924Z,6.90
2022-11-15T11:51:19.432Z,3.70
2022-11-15T11:53:54.143Z,4.93
2022-11-15T11:56:29.561Z,3.50
2022-11-15T11:59:04.344Z,4.67
2022-11-15T12:01:36.836Z,7.50
2022-11-15T12:04:11.361Z,6.07
2022-11-15T12:06:44.495Z,5.57
2022-11-15T12:09:18.613Z,4.43
2022-11-15T12:11:56.926Z,5.30
2022-11-15T12:14:33.498Z,6.10
2022-11-15T12:17:01.697Z,5.30
2022-11-15T12:19:31.331Z,4.13
2022-11-15T12:22:04.085Z,4.80
2022-11-15T12:24:36.670Z,5.67
2022-11-15T12:27:13.637Z,7.27
2022-11-15T12:29:45.023Z,4.53
2022-11-15T12:32:27.644Z,7.13
2022-11-15T12:34:56.715Z,7.75
2022-11-15T12:37:52.380Z,4.90
2022-11-15T12:40:28.795Z,4.90
2022-11-15T12:43:43.341Z,5.10
2022-11-15T12:46:22.326Z,4.60
2022-11-15T12:48:55.754Z,5.10
2022-11-15T12:51:45.016Z,11.27
2022-11-15T12:55:07.153Z,8.80
2022-11-15T12:57:42.927Z,5.27
2022-11-15T13:00:40.943Z,3.90
2022-11-15T13:03:20.252Z,4.33
2022-11-15T13:06:03.801Z,3.93
2022-11-15T13:08:44.797Z,4.50
2022-11-15T13:11:50.795Z,4.43
2022-11-15T13:14:41.526Z,4.13
2022-11-15T13:17:34.318Z,7.40
2022-11-15T13:20:23.142Z,6.93
2022-11-15T13:22:51.836Z,4.80
2022-11-15T13:25:25.231Z,4.27
2022-11-15T13:27:55.298Z,4.27
2022-11-15T13:30:25.613Z,4.57
2022-11-15T13:32:55.538Z,4.07
2022-11-15T13:35:25.875Z,5.97
2022-11-15T13:37:55.132Z,4.77
2022-11-15T13:40:28.274Z,5.70
2022-11-15T13:42:57.400Z,4.73
2022-11-15T13:45:25.847Z,4.57
2022-11-15T13:47:57.468Z,5.50
2022-11-15T13:50:29.472Z,4.20
2022-11-15T13:53:01.249Z,6.00
2022-11-15T13:55:30.607Z,6.33
2022-11-15T13:58:00.615Z,6.00
2022-11-15T14:00:38.533Z,6.53
2022-11-15T14:03:18.860Z,6.70
2022-11-15T14:06:07.612Z,7.70
2022-11-15T14:08:36.697Z,5.30
2022-11-15T14:11:15.676Z,5.20
2022-11-15T14:13:44.000Z,6.50
2022-11-15T14:16:17.267Z,5.00
2022-11-15T14:18:49.327Z,6.07
2022-11-15T14:21:17.530Z,6.60
2022-11-15T14:23:45.652Z,8.20
2022-11-15T14:26:29.513Z,4.83
2022-11-15T14:28:57.304Z,7.70
2022-11-15T14:31:25.366Z,7.47
2022-11-15T14:33:54.481Z,6.40
2022-11-15T14:36:23.307Z,4.77
2022-11-15T14:38:51.206Z,6.90
2022-11-15T14:41:26.608Z,7.37
2022-11-15T14:43:55.189Z,4.93
2022-11-15T14:46:22.963Z,5.43
2022-11-15T14:48:51.124Z,5.47
2022-11-15T14:51:20.815Z,5.40
2022-11-15T14:53:49.373Z,6.00
2022-11-15T14:56:20.475Z,7.80
2022-11-15T14:58:48.255Z,7.30
2022-11-15T15:01:26.780Z,5.50
2022-11-15T15:03:56.815Z,6.70
2022-11-15T15:06:26.159Z,6.00
2022-11-15T15:08:53.927Z,8.00
2022-11-15T15:11:24.307Z,6.57
2022-11-15T15:13:53.192Z,6.93
2022-11-15T15:16:21.322Z,8.30
2022-11-15T15:18:49.460Z,9.90
2022-11-15T15:21:23.042Z,7.50
2022-11-15T15:23:52.487Z,10.60
2022-11-15T15:26:20.294Z,7.73
2022-11-15T15:28:49.429Z,7.93
2022-11-15T15:31:17.208Z,8.30
2022-11-15T15:33:45.179Z,8.57
2022-11-15T15:36:14.193Z,6.20
2022-11-15T15:38:42.990Z,7.20
2022-11-15T15:41:13.408Z,9.13
2022-11-15T15:43:41.575Z,9.87
2022-11-15T15:46:11.888Z,13.20
2022-11-15T15:48:40.379Z,10.20
2022-11-15T15:51:15.454Z,9.17
2022-11-15T15:53:46.428Z,15.87
2022-11-15T15:56:15.629Z,7.80
2022-11-15T15:58:43.399Z,8.33
2022-11-15T16:01:11.373Z,8.70
2022-11-15T16:03:39.201Z,14.93
2022-11-15T16:06:22.167Z,9.40
2022-11-15T16:09:13.632Z,9.03
2022-11-15T16:11:39.060Z,8.43
2022-11-15T16:14:06.927Z,8.70
2022-11-15T16:16:35.007Z,13.53
2022-11-15T16:19:02.955Z,8.97
2022-11-15T16:21:30.859Z,9.20
2022-11-15T16:23:59.009Z,6.97
2022-11-15T16:26:29.181Z,14.23
2022-11-15T16:28:58.296Z,9.93
2022-11-15T16:31:26.080Z,9.30
2022-11-15T16:33:53.851Z,10.70
2022-11-15T16:36:29.566Z,13.63
2022-11-15T16:38:58.853Z,17.13
2022-11-15T16:41:27.086Z,13.77
2022-11-15T16:43:55.048Z,18.40
2022-11-15T16:46:25.666Z,11.73
2022-11-15T16:48:54.888Z,13.00
2022-11-15T16:51:23.591Z,10.67
2022-11-15T16:53:51.646Z,11.13
2022-11-15T16:56:23.278Z,13.33
2022-11-15T16:58:51.404Z,20.53
2022-11-15T17:01:23.566Z,19.50
2022-11-15T17:03:53.034Z,18.13
2022-11-15T17:06:21.141Z,15.20
2022-11-15T17:08:49.364Z,14.03
2022-11-15T17:11:18.996Z,13.43
2022-11-15T17:13:48.660Z,13.57
2022-11-15T17:16:18.317Z,16.13
2022-11-15T17:18:46.539Z,14.20
2022-11-15T17:21:18.246Z,14.80
2022-11-15T17:23:46.188Z,15.20
2022-11-15T17:26:29.271Z,16.20
2022-11-15T17:29:00.826Z,17.00
2022-11-15T17:31:30.574Z,12.67
2022-11-15T17:33:58.356Z,12.60
2022-11-15T17:36:27.583Z,13.23
2022-11-15T17:38:59.245Z,11.20
2022-11-15T17:41:28.507Z,14.37
2022-11-15T17:43:58.869Z,11.70
2022-11-15T17:46:27.535Z,16.73
2022-11-15T17:48:59.234Z,17.40
2022-11-15T17:51:28.437Z,13.53
2022-11-15T17:53:56.957Z,14.13
2022-11-15T17:56:26.791Z,14.43
2022-11-15T17:58:56.021Z,12.57
2022-11-15T18:01:25.369Z,13.20
2022-11-15T18:03:53.803Z,14.73
2022-11-15T18:06:23.727Z,16.50
2022-11-15T18:08:55.816Z,13.50
2022-11-15T18:11:25.026Z,13.47
2022-11-15T18:13:54.742Z,12.70
2022-11-15T18:16:25.267Z,24.70
2022-11-15T18:18:53.985Z,15.90
2022-11-15T18:21:23.663Z,12.43
2022-11-15T18:23:56.792Z,11.90
2022-11-15T18:26:27.593Z,15.17
2022-11-15T18:28:57.305Z,14.53
2022-11-15T18:31:28.061Z,15.80
2022-11-15T18:33:56.727Z,17.20
2022-11-15T18:36:26.537Z,16.20
2022-11-15T18:38:57.242Z,12.77
2022-11-15T18:41:28.435Z,12.73
2022-11-15T18:43:57.075Z,11.27
2022-11-15T18:46:27.015Z,14.10
2022-11-15T18:48:55.650Z,12.60
2022-11-15T18:51:25.687Z,14.83
2022-11-15T18:53:54.487Z,16.67
2022-11-15T18:56:25.415Z,13.10
2022-11-15T18:58:56.344Z,15.60
2022-11-15T19:01:25.837Z,17.40
2022-11-15T19:03:55.697Z,17.87
2022-11-15T19:06:25.375Z,21.43
2022-11-15T19:08:56.355Z,12.83
2022-11-15T19:11:28.652Z,18.00
2022-11-15T19:13:58.008Z,20.43
2022-11-15T19:16:26.498Z,17.47
2022-11-15T19:18:55.632Z,15.57
2022-11-15T19:21:24.139Z,19.70
2022-11-15T19:23:54.063Z,16.13
2022-11-15T19:26:23.629Z,17.43
2022-11-15T19:28:54.488Z,15.70
2022-11-15T19:31:24.186Z,16.37
2022-11-15T19:33:53.603Z,17.47
2022-11-15T19:36:23.216Z,18.27
2022-11-15T19:38:51.508Z,19.00
2022-11-15T19:41:21.797Z,18.23
2022-11-15T19:43:50.760Z,17.37
2022-11-15T19:46:21.778Z,18.53
2022-11-15T19:48:49.887Z,20.07
2022-11-15T19:51:19.586Z,21.10
2022-11-15T19:53:47.439Z,19.30
2022-11-15T19:56:17.462Z,19.93
2022-11-15T19:58:45.974Z,21.63
2022-11-15T20:01:17.139Z,17.23
2022-11-15T20:03:47.528Z,20.00
2022-11-15T20:06:22.562Z,20.20
2022-11-15T20:08:50.732Z,37.83
2022-11-15T20:11:19.306Z,24.50
2022-11-15T20:13:48.326Z,21.27
2022-11-15T20:16:18.529Z,23.00
2022-11-15T20:18:49.012Z,27.10
2022-11-15T20:21:17.128Z,22.70
2022-11-15T20:23:45.470Z,19.20
2022-11-15T20:26:15.839Z,20.37
2022-11-15T20:28:44.634Z,19.37
2022-11-15T20:31:12.878Z,27.70
2022-11-15T20:33:41.112Z,24.47
2022-11-15T20:36:12.996Z,22.17
2022-11-15T20:38:41.244Z,30.43
2022-11-15T20:41:09.445Z,29.13
2022-11-15T20:43:37.233Z,30.07
2022-11-15T20:46:05.638Z,30.70
2022-11-15T20:48:33.696Z,31.33
2022-11-15T20:51:06.952Z,34.10
2022-11-15T20:53:36.552Z,29.50
2022-11-15T20:56:07.677Z,25.90
2022-11-15T20:58:36.221Z,24.33
2022-11-15T21:01:06.842Z,22.97
2022-11-15T21:03:35.654Z,26.10
2022-11-15T21:06:04.004Z,33.57
2022-11-15T21:08:52.402Z,30.30
2022-11-15T21:11:40.341Z,34.37
2022-11-15T21:14:09.774Z,25.73
2022-11-15T21:16:37.771Z,26.97
2022-11-15T21:19:06.941Z,27.93
2022-11-15T21:21:34.972Z,23.80
2022-11-15T21:24:03.835Z,26.90
2022-11-15T21:26:33.094Z,24.80
2022-11-15T21:29:00.960Z,24.77
2022-11-15T21:31:29.251Z,24.77
2022-11-15T21:33:57.002Z,21.87
2022-11-15T21:36:25.447Z,21.30
2022-11-15T21:38:53.536Z,25.63
2022-11-15T21:41:21.342Z,22.90
2022-11-15T21:43:50.475Z,24.27
2022-11-15T21:46:18.584Z,27.20
2022-11-15T21:48:46.658Z,23.10
2022-11-15T21:51:14.535Z,23.57
2022-11-15T21:53:42.407Z,38.80
2022-11-15T21:56:11.785Z,20.53
2022-11-15T21:58:40.436Z,21.63
2022-11-15T22:01:29.472Z,20.80
2022-11-15T22:03:57.314Z,18.93
2022-11-15T22:06:25.373Z,17.57
2022-11-15T22:08:53.277Z,22.00
2022-11-15T22:11:21.179Z,27.60
2022-11-15T22:13:48.988Z,21.07
2022-11-15T22:16:18.299Z,16.30
2022-11-15T22:18:46.422Z,21.27
2022-11-15T22:21:15.867Z,18.27
2022-11-15T22:23:44.952Z,15.97
2022-11-15T22:26:20.804Z,32.23
2022-11-15T22:28:53.667Z,17.00
2022-11-15T22:31:22.907Z,16.50
2022-11-15T22:33:50.845Z,13.70
2022-11-15T22:36:18.947Z,16.20
2022-11-15T22:38:46.909Z,20.20
2022-11-15T22:41:14.923Z,14.33
2022-11-15T22:43:42.814Z,20.37
2022-11-15T22:46:11.101Z,14.13
2022-11-15T22:48:40.417Z,19.50
2022-11-15T22:51:08.860Z,18.47
2022-11-15T22:53:36.765Z,20.87
2022-11-15T22:56:06.416Z,15.30
2022-11-15T23:01:20.908Z,13.87
2022-11-15T23:03:50.280Z,19.20
2022-11-15T23:06:18.215Z,18.27
2022-11-15T23:08:46.142Z,12.80
2022-11-15T23:11:46.295Z,16.80
2022-11-15T23:14:14.245Z,12.93
2022-11-15T23:16:42.181Z,13.17
2022-11-15T23:19:12.887Z,17.80
2022-11-15T23:21:59.104Z,23.03
2022-11-15T23:24:27.085Z,16.67
2022-11-15T23:26:56.807Z,13.70
2022-11-15T23:29:26.273Z,11.73
2022-11-15T23:32:12.645Z,10.73
2022-11-15T23:34:44.409Z,11.90
2022-11-15T23:37:15.092Z,12.60
2022-11-15T23:39:42.959Z,12.93
2022-11-15T23:42:19.308Z,11.80
2022-11-15T23:44:49.786Z,11.40
2022-11-15T23:47:17.665Z,10.07
2022-11-15T23:49:47.011Z,13.00
2022-11-15T23:52:15.730Z,8.47
2022-11-15T23:54:44.029Z,11.90
2022-11-15T23:57:12.752Z,18.00
2022-11-15T23:59:41.096Z,8.53
